Time;durP1;ratioP1;P1;durP2;ratioP2;P2;SDS_P1;SDS_P2;PMS_P1;PMS_P2;Temp;Humidity;BMP_temperature;BMP_pressure;BME280_temperature;BME280_humidity;BME280_pressure;Samples;Min_cycle;Max_cycle;Signal;HPM_P1;HPM_P2
2021/09/11 00:00:06;;;;;;;8.55;4.35;;;19.00;99.90;;;;;;4993259;28;20169;-84
2021/09/11 00:02:31;;;;;;;4.88;3.95;;;19.00;99.90;;;;;;4993009;28;20177;-84
2021/09/11 00:04:57;;;;;;;4.50;4.07;;;19.00;99.90;;;;;;4994091;28;20208;-83
2021/09/11 00:07:23;;;;;;;10.65;4.20;;;18.80;99.90;;;;;;4993098;28;20272;-84
2021/09/11 00:09:49;;;;;;;10.23;4.80;;;18.70;99.90;;;;;;4993085;28;20616;-84
2021/09/11 00:12:15;;;;;;;6.22;4.22;;;18.70;99.90;;;;;;4992220;28;20170;-83
2021/09/11 00:14:41;;;;;;;5.22;4.25;;;18.80;99.90;;;;;;4992426;28;20177;-84
2021/09/11 00:17:07;;;;;;;10.57;5.25;;;18.80;99.90;;;;;;4991965;28;20633;-84
2021/09/11 00:19:33;;;;;;;8.07;5.20;;;18.80;99.90;;;;;;4992645;28;20197;-83
2021/09/11 00:21:59;;;;;;;7.97;5.05;;;18.70;99.90;;;;;;4992390;28;20177;-84
2021/09/11 00:24:25;;;;;;;9.25;4.90;;;18.70;99.90;;;;;;4992723;28;20188;-82
2021/09/11 00:26:51;;;;;;;5.13;4.72;;;18.70;99.90;;;;;;4993696;28;20201;-83
2021/09/11 00:29:17;;;;;;;7.45;4.88;;;18.60;99.90;;;;;;4993523;28;20512;-84
2021/09/11 00:31:43;;;;;;;6.22;4.38;;;18.50;99.90;;;;;;4993157;28;20177;-83
2021/09/11 00:34:09;;;;;;;4.95;4.55;;;18.50;99.90;;;;;;4994250;28;20197;-83
2021/09/11 00:36:34;;;;;;;8.35;4.72;;;18.60;99.90;;;;;;4992570;28;20625;-84
2021/09/11 00:39:00;;;;;;;5.28;4.88;;;18.40;99.90;;;;;;4992193;28;20196;-83
2021/09/11 00:41:25;;;;;;;10.40;5.13;;;18.40;99.90;;;;;;4992802;28;20169;-83
2021/09/11 00:43:51;;;;;;;7.95;5.88;;;18.50;99.90;;;;;;4992473;28;20315;-83
2021/09/11 00:46:17;;;;;;;13.02;6.30;;;18.50;99.90;;;;;;4992279;28;20208;-83
2021/09/11 00:48:44;;;;;;;17.75;5.03;;;18.60;99.90;;;;;;4992290;28;20286;-83
2021/09/11 00:51:11;;;;;;;5.45;4.60;;;18.60;99.90;;;;;;4992327;28;20311;-84
2021/09/11 00:53:38;;;;;;;15.25;5.43;;;18.40;99.90;;;;;;4992532;28;20181;-83
2021/09/11 00:56:05;;;;;;;8.23;5.00;;;18.30;99.90;;;;;;4992586;28;20534;-83
2021/09/11 00:58:31;;;;;;;7.65;5.05;;;18.40;99.90;;;;;;4992032;28;20339;-83
2021/09/11 01:00:56;;;;;;;5.32;4.82;;;18.40;99.90;;;;;;4992720;28;20706;-83
2021/09/11 01:03:22;;;;;;;12.00;4.50;;;18.10;99.90;;;;;;4993540;28;20178;-83
2021/09/11 01:05:48;;;;;;;7.80;5.93;;;18.20;99.90;;;;;;4992240;28;20558;-83
2021/09/11 01:08:14;;;;;;;10.95;5.10;;;18.20;99.90;;;;;;4992433;28;20185;-84
2021/09/11 01:10:40;;;;;;;10.48;5.40;;;18.30;99.90;;;;;;4992423;28;20288;-85
2021/09/11 01:13:11;;;;;;;9.45;5.63;;;18.30;99.90;;;;;;4991718;28;20166;-83
2021/09/11 01:15:40;;;;;;;8.55;5.25;;;18.30;99.90;;;;;;4992122;28;20645;-84
2021/09/11 01:18:10;;;;;;;9.75;5.25;;;18.20;99.90;;;;;;4993114;28;20731;-84
2021/09/11 01:20:37;;;;;;;6.38;5.53;;;18.20;99.90;;;;;;4992275;28;20541;-84
2021/09/11 01:23:03;;;;;;;7.38;4.88;;;18.20;99.90;;;;;;4992063;28;20165;-84
2021/09/11 01:25:29;;;;;;;12.35;4.82;;;18.10;99.90;;;;;;4992922;28;20247;-83
2021/09/11 01:27:55;;;;;;;7.78;5.05;;;18.10;99.90;;;;;;4993280;28;20224;-84
2021/09/11 01:30:22;;;;;;;9.02;4.82;;;17.90;99.90;;;;;;4991895;28;20170;-84
2021/09/11 01:32:50;;;;;;;8.95;5.28;;;17.80;99.90;;;;;;4992014;28;20716;-84
2021/09/11 01:35:16;;;;;;;5.57;5.03;;;17.80;99.90;;;;;;4995712;28;20819;-85
2021/09/11 01:37:42;;;;;;;7.20;4.93;;;18.00;99.90;;;;;;4995981;28;20570;-83
2021/09/11 01:40:09;;;;;;;5.55;4.63;;;18.10;99.90;;;;;;4995906;28;20203;-83
2021/09/11 01:42:35;;;;;;;7.70;4.30;;;18.20;99.90;;;;;;4997373;28;20252;-84
2021/09/11 01:45:22;;;;;;;9.02;4.85;;;18.10;99.90;;;;;;4995816;28;20296;-83
2021/09/11 01:47:50;;;;;;;8.73;4.15;;;18.20;99.90;;;;;;4995097;28;20630;-84
2021/09/11 01:50:17;;;;;;;6.55;4.30;;;18.20;99.90;;;;;;4995900;28;20204;-83
2021/09/11 01:52:43;;;;;;;5.40;4.35;;;18.10;99.90;;;;;;4996928;28;20655;-83
2021/09/11 01:55:11;;;;;;;9.40;4.60;;;18.20;99.90;;;;;;4995343;28;20253;-83
2021/09/11 01:57:38;;;;;;;4.72;3.63;;;18.30;99.90;;;;;;4995519;28;20165;-84
2021/09/11 02:00:11;;;;;;;6.90;3.40;;;18.30;99.90;;;;;;4995550;28;20626;-84
2021/09/11 02:02:37;;;;;;;9.27;3.35;;;18.30;99.90;;;;;;4996884;28;20184;-83
2021/09/11 02:05:08;;;;;;;4.03;3.17;;;18.20;99.90;;;;;;4995498;28;20193;-85
2021/09/11 02:07:34;;;;;;;14.30;4.05;;;18.20;99.90;;;;;;4996703;28;20188;-84
2021/09/11 02:10:00;;;;;;;10.90;3.83;;;18.30;99.90;;;;;;4996659;28;20744;-83
2021/09/11 02:12:26;;;;;;;6.22;3.75;;;18.40;99.90;;;;;;4995354;28;20173;-84
2021/09/11 02:14:51;;;;;;;5.50;4.07;;;18.50;99.90;;;;;;4995467;28;20177;-83
2021/09/11 02:17:17;;;;;;;7.93;2.95;;;18.50;99.90;;;;;;4995556;28;20173;-84
2021/09/11 02:19:43;;;;;;;4.80;3.50;;;18.60;99.90;;;;;;4995382;28;20193;-84
2021/09/11 02:22:10;;;;;;;12.45;3.20;;;18.50;99.90;;;;;;4996699;28;20173;-83
2021/09/11 02:24:37;;;;;;;4.55;2.90;;;18.50;99.90;;;;;;4995146;28;20176;-84
2021/09/11 02:27:03;;;;;;;6.40;2.97;;;18.60;99.90;;;;;;4995407;28;20553;-83
2021/09/11 02:29:29;;;;;;;6.43;3.95;;;18.60;99.90;;;;;;4995090;28;20243;-84
2021/09/11 02:31:54;;;;;;;6.10;4.00;;;18.50;99.90;;;;;;4995024;28;20173;-82
2021/09/11 02:34:20;;;;;;;6.13;3.30;;;18.50;99.90;;;;;;4995056;28;20173;-84
2021/09/11 02:36:46;;;;;;;6.70;3.75;;;18.30;99.90;;;;;;4995297;28;20268;-84
2021/09/11 02:39:11;;;;;;;8.20;3.83;;;18.50;99.90;;;;;;4994781;28;20665;-83
2021/09/11 02:41:37;;;;;;;6.20;3.40;;;18.60;99.90;;;;;;4996153;28;20212;-84
2021/09/11 02:44:03;;;;;;;6.88;3.92;;;18.60;99.90;;;;;;4994226;28;20300;-84
2021/09/11 02:46:30;;;;;;;7.72;3.00;;;18.50;99.90;;;;;;4995984;28;20205;-82
2021/09/11 02:48:57;;;;;;;4.65;3.30;;;18.50;99.90;;;;;;4994730;28;20220;-83
2021/09/11 02:51:26;;;;;;;6.07;3.35;;;18.50;99.90;;;;;;4994845;28;20192;-84
2021/09/11 02:53:52;;;;;;;3.22;3.00;;;18.50;99.90;;;;;;4995920;28;20204;-84
2021/09/11 02:56:18;;;;;;;3.67;3.38;;;18.70;99.90;;;;;;4994780;28;20177;-84
2021/09/11 02:58:43;;;;;;;3.70;3.40;;;18.60;99.90;;;;;;4994898;28;20340;-83
2021/09/11 03:01:09;;;;;;;11.30;3.95;;;18.50;99.90;;;;;;4995430;28;20196;-82
2021/09/11 03:03:36;;;;;;;7.05;3.78;;;18.50;99.90;;;;;;4996138;28;20283;-86
2021/09/11 03:06:01;;;;;;;8.95;3.33;;;18.40;99.90;;;;;;4995344;28;20339;-83
2021/09/11 03:08:27;;;;;;;4.15;3.42;;;18.30;99.90;;;;;;4994765;28;20284;-83
2021/09/11 03:10:53;;;;;;;5.72;4.10;;;18.40;99.90;;;;;;4994609;28;20165;-83
2021/09/11 03:13:18;;;;;;;9.43;3.15;;;18.40;99.90;;;;;;4994288;28;20173;-82
2021/09/11 03:15:44;;;;;;;9.02;3.75;;;18.50;99.90;;;;;;5000866;28;20161;-84
2021/09/11 03:18:10;;;;;;;8.32;3.83;;;18.50;99.90;;;;;;5007752;28;20704;-84
2021/09/11 03:20:36;;;;;;;6.00;2.95;;;18.50;99.90;;;;;;5007175;28;20248;-83
2021/09/11 03:23:02;;;;;;;4.60;2.90;;;18.50;99.90;;;;;;5009366;28;20182;-83
2021/09/11 03:25:28;;;;;;;8.18;3.10;;;18.70;99.90;;;;;;5008069;28;20213;-83
2021/09/11 03:27:54;;;;;;;7.07;3.08;;;18.50;99.90;;;;;;5005006;28;20174;-83
2021/09/11 03:30:20;;;;;;;7.05;2.97;;;18.30;99.90;;;;;;4997813;28;20180;-84
2021/09/11 03:32:46;;;;;;;10.20;3.17;;;18.30;99.90;;;;;;4998749;28;20531;-83
2021/09/11 03:35:11;;;;;;;5.53;2.45;;;18.50;99.90;;;;;;4995928;28;20177;-83
2021/09/11 03:37:37;;;;;;;5.75;2.83;;;18.60;99.90;;;;;;4994884;28;20522;-84
2021/09/11 03:40:04;;;;;;;6.97;3.22;;;18.40;99.90;;;;;;4993597;28;20168;-83
2021/09/11 03:42:30;;;;;;;6.10;2.92;;;18.60;99.90;;;;;;4993940;28;20544;-83
2021/09/11 03:44:55;;;;;;;3.10;2.25;;;18.60;99.90;;;;;;4994966;28;20205;-83
2021/09/11 03:47:21;;;;;;;5.97;2.58;;;18.60;99.90;;;;;;4993616;28;20173;-84
2021/09/11 03:49:47;;;;;;;10.60;3.03;;;18.70;99.90;;;;;;4994760;28;20247;-83
2021/09/11 03:52:12;;;;;;;8.27;2.50;;;18.80;99.90;;;;;;4993342;28;20173;-84
2021/09/11 03:54:38;;;;;;;12.18;2.42;;;18.70;99.90;;;;;;4993835;28;20165;-84
2021/09/11 03:57:04;;;;;;;2.72;2.53;;;18.70;99.90;;;;;;4993019;28;20195;-84
2021/09/11 03:59:29;;;;;;;3.50;2.33;;;18.50;99.90;;;;;;4993548;28;20580;-86
2021/09/11 04:01:55;;;;;;;7.97;2.70;;;18.40;99.90;;;;;;4993011;28;20272;-83
2021/09/11 04:04:21;;;;;;;13.23;3.25;;;18.50;99.90;;;;;;4992973;28;20648;-84
2021/09/11 04:06:46;;;;;;;3.45;2.40;;;18.60;99.90;;;;;;4993248;28;20259;-84
2021/09/11 04:09:12;;;;;;;5.43;2.35;;;18.60;99.90;;;;;;4993212;28;20208;-84
2021/09/11 04:11:37;;;;;;;13.38;2.17;;;18.60;99.90;;;;;;4993458;28;20260;-85
2021/09/11 04:14:03;;;;;;;9.15;2.08;;;18.70;99.90;;;;;;4994302;28;20166;-84
2021/09/11 04:16:29;;;;;;;3.55;2.75;;;18.60;99.90;;;;;;4994383;28;20522;-84
2021/09/11 04:18:54;;;;;;;5.05;2.15;;;18.60;99.90;;;;;;4993069;28;20526;-84
2021/09/11 04:21:20;;;;;;;9.90;2.20;;;18.70;99.90;;;;;;4992963;28;20173;-83
2021/09/11 04:23:46;;;;;;;6.63;2.35;;;18.70;99.90;;;;;;4992808;28;20169;-83
2021/09/11 04:26:11;;;;;;;2.17;1.98;;;18.70;99.90;;;;;;4992493;28;20232;-84
2021/09/11 04:28:37;;;;;;;6.15;2.42;;;18.70;99.90;;;;;;4992473;28;20572;-83
2021/09/11 04:31:03;;;;;;;3.33;1.85;;;18.90;99.90;;;;;;4993048;28;20232;-84
2021/09/11 04:33:29;;;;;;;6.00;2.10;;;18.70;99.90;;;;;;4992887;28;20176;-87
2021/09/11 04:35:54;;;;;;;3.47;2.67;;;18.60;99.90;;;;;;4992932;28;20169;-84
2021/09/11 04:38:20;;;;;;;7.38;2.13;;;18.60;99.90;;;;;;4992393;28;20193;-85
2021/09/11 04:40:46;;;;;;;4.90;2.25;;;18.70;99.90;;;;;;4992701;28;20181;-84
2021/09/11 04:43:11;;;;;;;4.13;1.90;;;18.60;99.90;;;;;;4992495;28;20172;-83
2021/09/11 04:45:37;;;;;;;6.80;2.33;;;18.60;99.90;;;;;;4992078;28;20299;-84
2021/09/11 04:48:03;;;;;;;4.82;2.28;;;18.70;99.90;;;;;;4992434;28;20670;-84
2021/09/11 04:50:28;;;;;;;10.68;2.45;;;18.80;99.90;;;;;;4992239;28;20243;-84
2021/09/11 04:52:55;;;;;;;3.08;2.20;;;18.80;99.90;;;;;;4993643;28;20161;-83
2021/09/11 04:55:21;;;;;;;10.20;2.35;;;18.70;99.90;;;;;;4992659;28;20165;-83
2021/09/11 04:57:47;;;;;;;4.82;2.20;;;18.70;99.90;;;;;;4992284;28;20173;-83
2021/09/11 05:00:14;;;;;;;4.35;2.58;;;18.90;99.90;;;;;;4992437;28;20256;-84
2021/09/11 05:02:40;;;;;;;9.73;2.55;;;19.00;99.90;;;;;;4993649;28;20204;-84
2021/09/11 05:05:06;;;;;;;4.50;2.47;;;18.90;99.90;;;;;;4992347;28;20201;-84
2021/09/11 05:07:32;;;;;;;8.07;2.90;;;18.90;99.90;;;;;;4993379;28;20185;-84
2021/09/11 05:09:57;;;;;;;4.05;2.35;;;18.70;99.90;;;;;;4993494;28;20193;-88
2021/09/11 05:12:23;;;;;;;4.20;2.35;;;18.60;99.90;;;;;;4994600;28;20172;-86
2021/09/11 05:14:48;;;;;;;5.35;2.42;;;18.60;99.90;;;;;;4994543;28;20188;-85
2021/09/11 05:17:14;;;;;;;2.67;2.22;;;18.60;99.90;;;;;;4994394;28;20201;-88
2021/09/11 05:19:40;;;;;;;4.95;3.05;;;18.70;99.90;;;;;;4993109;28;20205;-83
2021/09/11 05:22:06;;;;;;;9.05;2.90;;;18.80;99.90;;;;;;4993106;28;20176;-85
2021/09/11 05:24:31;;;;;;;11.50;3.60;;;18.90;99.90;;;;;;4994390;28;20188;-86
2021/09/11 05:26:57;;;;;;;13.15;4.43;;;18.90;99.90;;;;;;4994599;28;20205;-85
2021/09/11 05:29:23;;;;;;;11.50;3.30;;;18.70;99.90;;;;;;4993358;28;20193;-88
2021/09/11 05:31:49;;;;;;;4.65;2.60;;;18.60;99.90;;;;;;4993352;28;20161;-86
2021/09/11 05:34:14;;;;;;;9.20;3.15;;;18.70;99.90;;;;;;4993890;28;20183;-84
2021/09/11 05:36:40;;;;;;;4.40;2.78;;;18.90;99.90;;;;;;4999364;28;20180;-86
2021/09/11 05:39:06;;;;;;;5.75;3.10;;;18.90;99.90;;;;;;4998065;28;20216;-87
2021/09/11 05:41:31;;;;;;;4.70;3.47;;;18.90;99.90;;;;;;4998618;28;20177;-86
2021/09/11 05:43:57;;;;;;;7.10;3.10;;;18.80;99.90;;;;;;4996019;28;20204;-87
2021/09/11 05:46:23;;;;;;;5.03;3.33;;;18.90;99.90;;;;;;4995721;28;20244;-84
2021/09/11 05:48:48;;;;;;;9.25;3.78;;;18.90;99.90;;;;;;4996796;28;20189;-84
2021/09/11 05:51:14;;;;;;;6.28;3.53;;;18.90;99.90;;;;;;4994866;28;20181;-87
2021/09/11 05:53:39;;;;;;;5.00;3.25;;;19.00;99.90;;;;;;4995762;28;20288;-84
2021/09/11 05:56:05;;;;;;;7.50;3.78;;;18.90;99.90;;;;;;4996551;28;20533;-84
2021/09/11 05:58:31;;;;;;;4.88;4.00;;;18.90;99.90;;;;;;4999910;28;20189;-85
2021/09/11 06:00:57;;;;;;;5.45;3.35;;;19.00;99.90;;;;;;4997052;28;20235;-85
2021/09/11 06:03:22;;;;;;;8.05;3.08;;;19.00;99.90;;;;;;4993394;28;20177;-87
2021/09/11 06:05:48;;;;;;;8.93;3.35;;;18.90;99.90;;;;;;4994603;28;20240;-85
2021/09/11 06:08:14;;;;;;;4.72;3.13;;;19.00;99.90;;;;;;4992955;28;20196;-89
2021/09/11 06:10:40;;;;;;;9.15;3.45;;;18.70;99.90;;;;;;4993364;28;20180;-83
2021/09/11 06:13:06;;;;;;;2.78;2.55;;;18.80;99.90;;;;;;4993829;28;20165;-87
2021/09/11 06:15:32;;;;;;;5.55;4.55;;;18.70;99.90;;;;;;4996422;28;20529;-87
2021/09/11 06:17:57;;;;;;;9.98;3.90;;;18.80;99.90;;;;;;4994444;28;20251;-85
2021/09/11 06:20:23;;;;;;;8.55;3.88;;;18.90;99.90;;;;;;4998106;28;20677;-86
2021/09/11 06:22:49;;;;;;;4.13;3.72;;;19.00;99.90;;;;;;5010096;28;20157;-84
2021/09/11 06:25:15;;;;;;;6.63;3.55;;;19.00;99.90;;;;;;5018442;28;20216;-86
2021/09/11 06:27:43;;;;;;;9.35;3.72;;;19.00;99.90;;;;;;5018457;28;20200;-82
2021/09/11 06:30:11;;;;;;;6.85;3.92;;;19.20;99.90;;;;;;5007623;28;20173;-83
2021/09/11 06:32:37;;;;;;;4.20;3.50;;;19.10;99.90;;;;;;5000769;28;20204;-83
2021/09/11 06:35:04;;;;;;;9.40;3.35;;;19.30;99.90;;;;;;4995120;28;20220;-84
2021/09/11 06:37:29;;;;;;;8.90;3.97;;;19.30;99.90;;;;;;4995086;28;20196;-84
2021/09/11 06:39:55;;;;;;;7.25;3.33;;;19.30;99.90;;;;;;4994897;28;20201;-83
2021/09/11 06:42:21;;;;;;;6.95;3.92;;;19.30;99.90;;;;;;4995948;28;20177;-83
2021/09/11 06:44:47;;;;;;;7.15;4.10;;;19.10;99.90;;;;;;4995141;28;20176;-83
2021/09/11 06:47:14;;;;;;;11.57;3.97;;;19.10;99.90;;;;;;4994977;28;20232;-83
2021/09/11 06:49:45;;;;;;;7.45;3.60;;;19.20;99.90;;;;;;4994820;28;20497;-82
2021/09/11 06:52:11;;;;;;;10.90;4.28;;;19.30;99.90;;;;;;4995013;28;20181;-83
2021/09/11 06:54:37;;;;;;;5.30;4.07;;;19.20;99.90;;;;;;4995226;28;20507;-82
2021/09/11 06:57:03;;;;;;;4.72;3.42;;;19.40;99.90;;;;;;4994607;28;20673;-83
2021/09/11 06:59:29;;;;;;;5.60;3.30;;;19.30;99.90;;;;;;4994815;28;20204;-83
2021/09/11 07:01:55;;;;;;;4.40;3.42;;;19.40;99.90;;;;;;4994816;28;20235;-85
2021/09/11 07:04:21;;;;;;;4.07;3.03;;;19.40;99.90;;;;;;4995333;28;20544;-85
2021/09/11 07:06:47;;;;;;;5.18;3.17;;;19.50;99.90;;;;;;4994594;28;20272;-86
2021/09/11 07:09:12;;;;;;;6.28;2.83;;;19.50;99.90;;;;;;4995806;28;20189;-85
2021/09/11 07:11:38;;;;;;;3.95;3.25;;;19.50;99.90;;;;;;4996104;28;20173;-87
2021/09/11 07:14:03;;;;;;;7.50;3.40;;;19.50;99.90;;;;;;4994112;28;20630;-87
2021/09/11 07:16:29;;;;;;;4.88;3.20;;;19.60;99.90;;;;;;4994871;28;20184;-85
2021/09/11 07:18:55;;;;;;;11.43;2.97;;;19.80;99.90;;;;;;4994627;28;20185;-86
2021/09/11 07:21:20;;;;;;;2.80;2.60;;;19.60;99.90;;;;;;4993957;28;20188;-85
2021/09/11 07:23:46;;;;;;;4.78;3.17;;;19.80;99.90;;;;;;4993908;28;20172;-83
2021/09/11 07:26:18;;;;;;;5.95;3.10;;;19.80;99.90;;;;;;4994671;28;20217;-85
2021/09/11 07:28:44;;;;;;;6.68;3.38;;;19.90;99.90;;;;;;4994936;28;20192;-85
2021/09/11 07:31:10;;;;;;;6.55;3.65;;;19.70;99.90;;;;;;4995319;28;20200;-86
2021/09/11 07:33:35;;;;;;;6.40;2.83;;;19.60;99.90;;;;;;4995165;28;20169;-88
2021/09/11 07:36:01;;;;;;;7.65;3.20;;;19.60;99.90;;;;;;4995047;28;20169;-87
2021/09/11 07:38:27;;;;;;;8.00;3.47;;;19.60;99.90;;;;;;4994764;28;20224;-87
2021/09/11 07:40:52;;;;;;;4.03;3.42;;;19.50;99.90;;;;;;4995398;28;20165;-88
2021/09/11 07:43:18;;;;;;;6.97;2.80;;;19.60;99.90;;;;;;4995526;28;20177;-88
2021/09/11 07:45:43;;;;;;;7.07;2.95;;;19.60;99.90;;;;;;4995285;28;20212;-86
2021/09/11 07:48:09;;;;;;;8.82;3.45;;;20.00;99.90;;;;;;4994997;28;20742;-86
2021/09/11 07:50:36;;;;;;;12.38;2.80;;;20.10;99.90;;;;;;4995272;28;20173;-86
2021/09/11 07:53:05;;;;;;;9.00;3.15;;;20.40;99.90;;;;;;4994664;28;20268;-84
2021/09/11 07:55:32;;;;;;;6.47;3.33;;;20.30;99.90;;;;;;4995102;28;20185;-89
2021/09/11 07:57:58;;;;;;;6.80;2.90;;;20.50;99.90;;;;;;4994600;28;20197;-85
2021/09/11 08:00:25;;;;;;;6.38;3.33;;;20.70;99.90;;;;;;4994053;28;20184;-86
2021/09/11 08:02:51;;;;;;;8.20;3.03;;;20.90;99.90;;;;;;4993435;28;20188;-81
2021/09/11 08:05:17;;;;;;;2.78;2.58;;;21.10;99.90;;;;;;4994039;28;20204;-82
2021/09/11 08:07:42;;;;;;;3.50;2.25;;;21.00;99.90;;;;;;4993408;28;20185;-82
2021/09/11 08:10:08;;;;;;;2.58;2.38;;;21.10;99.90;;;;;;4992746;28;20256;-82
2021/09/11 08:12:34;;;;;;;5.00;3.45;;;21.00;99.90;;;;;;4994751;28;20566;-82
2021/09/11 08:15:01;;;;;;;5.30;2.83;;;21.00;99.90;;;;;;4993672;28;20165;-81
2021/09/11 08:17:26;;;;;;;6.00;2.70;;;21.10;99.90;;;;;;4992756;28;20165;-81
2021/09/11 08:19:52;;;;;;;6.90;3.00;;;21.20;99.90;;;;;;4992388;28;20212;-82
2021/09/11 08:22:18;;;;;;;7.38;3.45;;;21.20;99.90;;;;;;4992319;28;20181;-82
2021/09/11 08:24:43;;;;;;;4.65;2.95;;;21.30;99.90;;;;;;4992098;28;20751;-82
2021/09/11 08:27:09;;;;;;;5.38;2.92;;;21.10;99.90;;;;;;4994416;28;20635;-85
2021/09/11 08:29:37;;;;;;;6.72;4.05;;;21.30;99.90;;;;;;4993551;28;20185;-88
2021/09/11 08:32:03;;;;;;;3.80;3.00;;;21.30;99.90;;;;;;4993379;28;20173;-85
2021/09/11 08:34:29;;;;;;;10.95;3.25;;;21.30;99.90;;;;;;4993004;28;20166;-85
2021/09/11 08:36:55;;;;;;;3.83;3.45;;;21.50;99.90;;;;;;4992907;28;20196;-84
2021/09/11 08:39:24;;;;;;;4.35;2.95;;;21.60;99.90;;;;;;4992287;28;20272;-85
2021/09/11 08:41:50;;;;;;;6.28;3.17;;;21.70;99.90;;;;;;4992096;28;20526;-85
2021/09/11 08:44:16;;;;;;;4.25;2.85;;;21.40;99.90;;;;;;4992180;28;20268;-84
2021/09/11 08:46:42;;;;;;;2.47;2.28;;;21.10;99.90;;;;;;4993687;28;20665;-84
2021/09/11 08:49:10;;;;;;;4.97;3.03;;;21.00;99.90;;;;;;4984491;28;20193;-84
2021/09/11 08:51:36;;;;;;;3.58;3.13;;;21.00;99.90;;;;;;4988566;28;20173;-85
2021/09/11 08:54:03;;;;;;;7.68;3.17;;;20.90;99.90;;;;;;4993053;28;20169;-88
2021/09/11 08:56:36;;;;;;;8.27;2.88;;;20.80;99.90;;;;;;4992985;28;20177;-85
2021/09/11 08:59:13;;;;;;;6.70;3.53;;;20.90;99.90;;;;;;4990975;28;20276;-86
2021/09/11 09:01:39;;;;;;;2.95;2.70;;;20.90;99.90;;;;;;5008596;28;20191;-86
2021/09/11 09:04:06;;;;;;;4.82;3.15;;;21.00;99.90;;;;;;5004300;28;20263;-87
2021/09/11 09:06:33;;;;;;;4.15;2.95;;;21.30;99.90;;;;;;4999119;28;20220;-85
2021/09/11 09:09:10;;;;;;;4.82;3.22;;;21.40;99.90;;;;;;5007962;28;20276;-85
2021/09/11 09:11:44;;;;;;;5.65;3.00;;;21.70;99.90;;;;;;5007571;28;20181;-86
2021/09/11 09:14:14;;;;;;;3.90;2.35;;;21.80;99.90;;;;;;5015932;28;20260;-86
2021/09/11 09:16:53;;;;;;;2.60;2.40;;;22.10;99.90;;;;;;4993373;28;20165;-86
2021/09/11 09:19:21;;;;;;;9.70;2.85;;;22.30;99.90;;;;;;4993047;28;20184;-86
2021/09/11 09:21:49;;;;;;;6.93;3.53;;;22.50;99.90;;;;;;4992149;28;20169;-86
2021/09/11 09:24:33;;;;;;;6.10;3.08;;;22.30;99.90;;;;;;4991578;28;20169;-85
2021/09/11 09:27:01;;;;;;;6.50;2.88;;;22.10;99.90;;;;;;4992144;28;20221;-86
2021/09/11 09:29:27;;;;;;;7.38;2.85;;;22.20;99.90;;;;;;4992182;28;20193;-85
2021/09/11 09:31:55;;;;;;;5.28;2.80;;;22.20;99.90;;;;;;4991654;28;20166;-84
2021/09/11 09:34:32;;;;;;;6.43;3.20;;;22.30;99.90;;;;;;4991948;28;20177;-86
2021/09/11 09:37:00;;;;;;;6.38;2.63;;;22.10;99.90;;;;;;4993226;28;20161;-85
2021/09/11 09:39:27;;;;;;;3.92;3.22;;;22.30;99.90;;;;;;4992659;28;20696;-86
2021/09/11 09:42:00;;;;;;;6.85;2.95;;;22.30;99.90;;;;;;4990893;28;20177;-85
2021/09/11 09:44:25;;;;;;;4.70;3.47;;;22.20;99.90;;;;;;4990887;28;20223;-86
2021/09/11 09:46:51;;;;;;;7.03;3.55;;;22.20;99.90;;;;;;4991312;28;20209;-85
2021/09/11 09:49:23;;;;;;;4.35;3.33;;;21.90;99.90;;;;;;4991329;28;20193;-85
2021/09/11 09:51:50;;;;;;;3.95;3.55;;;22.00;99.90;;;;;;4992416;28;20161;-84
2021/09/11 09:54:18;;;;;;;5.07;4.13;;;22.00;99.90;;;;;;4991518;28;20185;-85
2021/09/11 09:56:44;;;;;;;4.97;4.57;;;22.00;99.90;;;;;;4994653;28;20256;-85
2021/09/11 09:59:11;;;;;;;5.90;4.68;;;22.00;99.90;;;;;;4994406;28;20189;-84
2021/09/11 10:01:37;;;;;;;4.32;3.92;;;22.10;99.90;;;;;;4994227;28;20541;-84
2021/09/11 10:04:21;;;;;;;4.68;4.28;;;22.30;99.90;;;;;;4994285;28;20254;-85
2021/09/11 10:06:59;;;;;;;4.55;4.15;;;22.20;99.90;;;;;;4994588;28;20251;-85
2021/09/11 10:09:27;;;;;;;4.80;4.07;;;22.20;99.90;;;;;;4994291;28;20200;-82
2021/09/11 10:11:53;;;;;;;8.65;4.50;;;22.10;99.90;;;;;;4993382;28;20300;-83
2021/09/11 10:14:21;;;;;;;7.68;5.18;;;21.90;99.90;;;;;;4992914;28;20188;-82
2021/09/11 10:17:02;;;;;;;4.72;4.28;;;22.10;99.90;;;;;;5009625;28;20255;-82
2021/09/11 10:19:30;;;;;;;7.95;5.05;;;22.40;99.90;;;;;;5009608;28;20219;-83
2021/09/11 10:22:27;;;;;;;5.05;4.55;;;22.50;99.90;;;;;;4993033;28;20510;-84
2021/09/11 10:25:02;;;;;;;7.65;4.47;;;22.60;99.90;;;;;;4994477;28;20184;-83
2021/09/11 10:27:39;;;;;;;5.70;4.88;;;22.70;99.90;;;;;;4993317;28;20220;-84
2021/09/11 10:30:12;;;;;;;4.50;4.10;;;23.00;99.90;;;;;;4991987;28;20703;-82
2021/09/11 10:32:46;;;;;;;5.82;4.85;;;23.20;99.90;;;;;;4991035;28;20173;-82
2021/09/11 10:35:18;;;;;;;5.47;5.07;;;23.20;99.90;;;;;;4992615;28;20211;-82
2021/09/11 10:37:57;;;;;;;5.63;3.75;;;23.10;99.90;;;;;;4994045;28;20173;-83
2021/09/11 10:40:40;;;;;;;4.45;3.67;;;23.30;99.90;;;;;;4992709;28;20177;-83
2021/09/11 10:43:24;;;;;;;8.27;3.55;;;23.60;99.90;;;;;;5009268;28;20176;-83
2021/09/11 10:46:03;;;;;;;9.10;4.45;;;23.80;99.90;;;;;;4991824;28;20205;-83
2021/09/11 10:48:28;;;;;;;9.70;3.25;;;24.00;99.90;;;;;;4993764;28;20216;-82
2021/09/11 10:50:54;;;;;;;4.97;3.97;;;23.80;99.90;;;;;;4992116;28;20177;-82
2021/09/11 10:53:24;;;;;;;5.35;3.70;;;23.70;99.90;;;;;;4992610;28;20184;-84
2021/09/11 10:55:50;;;;;;;5.38;4.10;;;23.60;99.90;;;;;;5010242;28;20173;-83
2021/09/11 10:58:25;;;;;;;4.88;4.03;;;23.40;99.90;;;;;;4995303;28;20244;-83
2021/09/11 11:00:58;;;;;;;4.57;3.97;;;23.40;99.90;;;;;;5009792;28;20181;-83
2021/09/11 11:03:25;;;;;;;6.40;4.65;;;23.50;99.90;;;;;;4993598;28;20624;-83
2021/09/11 11:06:00;;;;;;;5.90;4.60;;;23.30;99.90;;;;;;4993266;28;20204;-86
2021/09/11 11:08:29;;;;;;;4.13;3.53;;;22.90;99.90;;;;;;4992948;28;20192;-85
2021/09/11 11:10:54;;;;;;;5.25;3.65;;;22.90;99.90;;;;;;4992891;28;20598;-84
2021/09/11 11:13:22;;;;;;;4.80;4.30;;;23.00;99.90;;;;;;4993268;28;20614;-83
2021/09/11 11:15:58;;;;;;;4.57;4.18;;;23.10;99.90;;;;;;4992984;28;20181;-82
2021/09/11 11:18:28;;;;;;;4.07;3.47;;;23.30;99.90;;;;;;4992937;28;20653;-82
2021/09/11 11:20:54;;;;;;;5.70;3.83;;;23.30;99.90;;;;;;4994611;28;20173;-82
2021/09/11 11:23:21;;;;;;;3.42;3.13;;;23.10;99.90;;;;;;4992716;28;20161;-82
2021/09/11 11:25:50;;;;;;;6.55;3.47;;;23.20;99.90;;;;;;4992696;28;20215;-82
2021/09/11 11:28:17;;;;;;;3.83;3.30;;;23.00;99.90;;;;;;4991741;28;20185;-83
2021/09/11 11:30:44;;;;;;;4.70;3.60;;;22.90;99.90;;;;;;4993576;28;20176;-82
2021/09/11 11:33:10;;;;;;;9.48;4.10;;;22.90;99.90;;;;;;4993676;28;20173;-82
2021/09/11 11:35:41;;;;;;;4.60;3.92;;;22.70;99.90;;;;;;4994531;28;20653;-83
2021/09/11 11:38:08;;;;;;;4.35;3.25;;;22.60;99.90;;;;;;4993637;28;20197;-84
2021/09/11 11:40:33;;;;;;;3.25;2.95;;;22.60;99.90;;;;;;5009708;28;20521;-83
2021/09/11 11:43:04;;;;;;;3.55;3.10;;;22.60;99.90;;;;;;4993944;28;20179;-82
2021/09/11 11:45:30;;;;;;;2.85;2.63;;;22.60;99.90;;;;;;4993374;28;20216;-81
2021/09/11 11:48:07;;;;;;;4.20;3.72;;;22.50;99.90;;;;;;4992767;28;20212;-82
2021/09/11 11:50:37;;;;;;;5.90;3.88;;;22.60;99.90;;;;;;4993019;28;20272;-82
2021/09/11 11:53:17;;;;;;;6.38;4.28;;;23.00;99.90;;;;;;4993879;28;20176;-80
2021/09/11 11:55:49;;;;;;;4.70;3.70;;;23.00;99.90;;;;;;4993942;28;20177;-82
2021/09/11 11:58:24;;;;;;;7.95;3.80;;;22.90;99.90;;;;;;5009241;28;20231;-81
2021/09/11 12:00:53;;;;;;;7.75;3.63;;;22.60;99.90;;;;;;4992785;28;20200;-82
2021/09/11 12:03:42;;;;;;;7.43;3.35;;;22.40;99.90;;;;;;4993704;28;20264;-80
2021/09/11 12:06:23;;;;;;;8.50;2.65;;;21.70;99.90;;;;;;4992694;28;20205;-80
2021/09/11 12:08:49;;;;;;;4.07;2.75;;;21.40;99.90;;;;;;4994274;28;20190;-81
2021/09/11 12:11:15;;;;;;;4.82;2.90;;;21.20;99.90;;;;;;4992419;28;20173;-81
2021/09/11 12:13:43;;;;;;;5.68;2.83;;;21.20;99.90;;;;;;4992053;28;20204;-81
2021/09/11 12:16:08;;;;;;;6.28;3.20;;;21.30;99.90;;;;;;4992629;28;20181;-86
2021/09/11 12:18:34;;;;;;;5.15;2.95;;;21.50;99.90;;;;;;4992169;28;20185;-82
2021/09/11 12:21:07;;;;;;;3.92;2.78;;;21.40;99.90;;;;;;4993191;28;20165;-84
2021/09/11 12:23:37;;;;;;;5.50;3.30;;;21.70;99.90;;;;;;4991029;28;20278;-82
2021/09/11 12:26:06;;;;;;;5.88;3.13;;;21.80;99.90;;;;;;4991426;28;20217;-83
2021/09/11 12:28:32;;;;;;;3.20;2.90;;;22.30;99.90;;;;;;4992570;28;20197;-83
2021/09/11 12:30:59;;;;;;;3.25;2.97;;;22.60;99.90;;;;;;4992407;28;20176;-82
2021/09/11 12:33:28;;;;;;;7.68;3.45;;;22.90;99.90;;;;;;4992362;28;20165;-83
2021/09/11 12:35:54;;;;;;;4.13;3.30;;;23.10;99.90;;;;;;4994025;28;20168;-81
2021/09/11 12:38:19;;;;;;;3.30;2.58;;;23.40;99.90;;;;;;4992763;28;20519;-82
2021/09/11 12:40:45;;;;;;;4.25;3.00;;;23.60;99.90;;;;;;4993336;28;20645;-82
2021/09/11 12:43:11;;;;;;;6.82;4.05;;;23.60;99.90;;;;;;4993727;28;20605;-81
2021/09/11 12:45:40;;;;;;;4.72;3.05;;;23.50;99.90;;;;;;4994056;28;20203;-84